sensor_id;sensor_type;location;lat;lon;timestamp;P1;durP1;ratioP1;P2;durP2;ratioP2
32864;SDS011;19219;44.500;11.188;2023-02-28T00:00:18;22.13;;;13.45;;
32864;SDS011;19219;44.500;11.188;2023-02-28T00:02:44;24.25;;;14.93;;
32864;SDS011;19219;44.500;11.188;2023-02-28T00:05:11;20.40;;;13.65;;
32864;SDS011;19219;44.500;11.188;2023-02-28T00:07:38;32.65;;;16.92;;
32864;SDS011;19219;44.500;11.188;2023-02-28T00:10:07;37.63;;;19.95;;
32864;SDS011;19219;44.500;11.188;2023-02-28T00:12:36;47.35;;;21.92;;
32864;SDS011;19219;44.500;11.188;2023-02-28T00:15:06;37.72;;;19.92;;
32864;SDS011;19219;44.500;11.188;2023-02-28T00:17:34;34.00;;;17.58;;
32864;SDS011;19219;44.500;11.188;2023-02-28T00:20:00;29.42;;;15.25;;
32864;SDS011;19219;44.500;11.188;2023-02-28T00:22:26;28.33;;;16.08;;
32864;SDS011;19219;44.500;11.188;2023-02-28T00:24:53;23.13;;;14.43;;
32864;SDS011;19219;44.500;11.188;2023-02-28T00:27:18;31.55;;;15.85;;
32864;SDS011;19219;44.500;11.188;2023-02-28T00:29:46;27.67;;;15.65;;
32864;SDS011;19219;44.500;11.188;2023-02-28T00:32:11;28.65;;;15.38;;
32864;SDS011;19219;44.500;11.188;2023-02-28T00:34:37;26.52;;;15.23;;
32864;SDS011;19219;44.500;11.188;2023-02-28T00:37:06;24.98;;;15.18;;
32864;SDS011;19219;44.500;11.188;2023-02-28T00:39:34;26.08;;;14.52;;
32864;SDS011;19219;44.500;11.188;2023-02-28T00:42:01;28.00;;;14.98;;
32864;SDS011;19219;44.500;11.188;2023-02-28T00:44:28;30.02;;;14.38;;
32864;SDS011;19219;44.500;11.188;2023-02-28T00:46:54;28.25;;;15.07;;
32864;SDS011;19219;44.500;11.188;2023-02-28T00:49:21;27.98;;;13.82;;
32864;SDS011;19219;44.500;11.188;2023-02-28T00:51:47;23.75;;;13.55;;
32864;SDS011;19219;44.500;11.188;2023-02-28T00:54:13;28.50;;;14.02;;
32864;SDS011;19219;44.500;11.188;2023-02-28T00:56:38;23.13;;;13.73;;
32864;SDS011;19219;44.500;11.188;2023-02-28T00:59:04;25.08;;;13.02;;
32864;SDS011;19219;44.500;11.188;2023-02-28T01:01:30;25.25;;;14.35;;
32864;SDS011;19219;44.500;11.188;2023-02-28T01:03:55;22.65;;;12.68;;
32864;SDS011;19219;44.500;11.188;2023-02-28T01:06:21;27.10;;;12.43;;
32864;SDS011;19219;44.500;11.188;2023-02-28T01:08:48;27.92;;;14.07;;
32864;SDS011;19219;44.500;11.188;2023-02-28T01:11:14;24.27;;;14.10;;
32864;SDS011;19219;44.500;11.188;2023-02-28T01:13:41;23.20;;;14.25;;
32864;SDS011;19219;44.500;11.188;2023-02-28T01:16:07;26.13;;;14.30;;
32864;SDS011;19219;44.500;11.188;2023-02-28T01:18:33;23.65;;;12.55;;
32864;SDS011;19219;44.500;11.188;2023-02-28T01:21:03;21.60;;;12.38;;
32864;SDS011;19219;44.500;11.188;2023-02-28T01:23:30;21.58;;;13.23;;
32864;SDS011;19219;44.500;11.188;2023-02-28T01:25:55;19.35;;;13.18;;
32864;SDS011;19219;44.500;11.188;2023-02-28T01:28:21;21.52;;;11.18;;
32864;SDS011;19219;44.500;11.188;2023-02-28T01:30:47;26.02;;;12.35;;
32864;SDS011;19219;44.500;11.188;2023-02-28T01:33:13;20.35;;;11.95;;
32864;SDS011;19219;44.500;11.188;2023-02-28T01:35:39;21.02;;;12.50;;
32864;SDS011;19219;44.500;11.188;2023-02-28T01:38:05;20.25;;;12.32;;
32864;SDS011;19219;44.500;11.188;2023-02-28T01:40:30;21.58;;;13.07;;
32864;SDS011;19219;44.500;11.188;2023-02-28T01:42:56;25.33;;;12.30;;
32864;SDS011;19219;44.500;11.188;2023-02-28T01:45:26;24.58;;;12.32;;
32864;SDS011;19219;44.500;11.188;2023-02-28T01:47:54;25.95;;;11.50;;
32864;SDS011;19219;44.500;11.188;2023-02-28T01:50:27;22.55;;;13.52;;
32864;SDS011;19219;44.500;11.188;2023-02-28T01:52:57;24.10;;;12.57;;
32864;SDS011;19219;44.500;11.188;2023-02-28T01:55:26;18.90;;;12.45;;
32864;SDS011;19219;44.500;11.188;2023-02-28T01:57:55;23.25;;;12.57;;
32864;SDS011;19219;44.500;11.188;2023-02-28T02:00:23;22.77;;;11.68;;
32864;SDS011;19219;44.500;11.188;2023-02-28T02:02:55;22.90;;;11.32;;
32864;SDS011;19219;44.500;11.188;2023-02-28T02:05:30;16.48;;;11.00;;
32864;SDS011;19219;44.500;11.188;2023-02-28T02:07:57;16.05;;;10.55;;
32864;SDS011;19219;44.500;11.188;2023-02-28T02:21:47;20.42;;;10.95;;
32864;SDS011;19219;44.500;11.188;2023-02-28T02:32:41;21.80;;;12.00;;
32864;SDS011;19219;44.500;11.188;2023-02-28T02:38:03;17.88;;;11.93;;
32864;SDS011;19219;44.500;11.188;2023-02-28T02:40:47;16.67;;;11.05;;
32864;SDS011;19219;44.500;11.188;2023-02-28T02:43:22;18.10;;;9.82;;
32864;SDS011;19219;44.500;11.188;2023-02-28T02:45:55;18.67;;;11.25;;
32864;SDS011;19219;44.500;11.188;2023-02-28T02:48:25;18.98;;;11.10;;
32864;SDS011;19219;44.500;11.188;2023-02-28T02:50:56;16.73;;;10.10;;
32864;SDS011;19219;44.500;11.188;2023-02-28T02:53:28;16.33;;;9.95;;
32864;SDS011;19219;44.500;11.188;2023-02-28T02:55:58;26.80;;;12.05;;
32864;SDS011;19219;44.500;11.188;2023-02-28T02:58:27;17.25;;;10.73;;
32864;SDS011;19219;44.500;11.188;2023-02-28T03:00:59;18.48;;;10.20;;
32864;SDS011;19219;44.500;11.188;2023-02-28T03:03:33;22.58;;;11.90;;
32864;SDS011;19219;44.500;11.188;2023-02-28T03:06:02;19.88;;;11.02;;
32864;SDS011;19219;44.500;11.188;2023-02-28T03:08:29;25.45;;;11.25;;
32864;SDS011;19219;44.500;11.188;2023-02-28T03:11:00;22.65;;;11.52;;
32864;SDS011;19219;44.500;11.188;2023-02-28T03:16:16;19.52;;;10.55;;
32864;SDS011;19219;44.500;11.188;2023-02-28T03:26:43;20.20;;;10.70;;
32864;SDS011;19219;44.500;11.188;2023-02-28T03:29:21;18.45;;;10.55;;
32864;SDS011;19219;44.500;11.188;2023-02-28T03:31:54;23.40;;;10.52;;
32864;SDS011;19219;44.500;11.188;2023-02-28T03:34:24;21.30;;;11.07;;
32864;SDS011;19219;44.500;11.188;2023-02-28T03:36:59;21.10;;;11.32;;
32864;SDS011;19219;44.500;11.188;2023-02-28T03:39:43;20.48;;;11.02;;
32864;SDS011;19219;44.500;11.188;2023-02-28T03:42:14;23.63;;;11.98;;
32864;SDS011;19219;44.500;11.188;2023-02-28T03:44:46;21.00;;;10.73;;
32864;SDS011;19219;44.500;11.188;2023-02-28T03:47:16;23.85;;;11.70;;
32864;SDS011;19219;44.500;11.188;2023-02-28T03:49:59;20.17;;;10.88;;
32864;SDS011;19219;44.500;11.188;2023-02-28T03:52:35;20.25;;;11.00;;
32864;SDS011;19219;44.500;11.188;2023-02-28T03:55:08;16.38;;;11.35;;
32864;SDS011;19219;44.500;11.188;2023-02-28T04:00:37;15.82;;;10.55;;
32864;SDS011;19219;44.500;11.188;2023-02-28T04:03:05;16.20;;;10.65;;
32864;SDS011;19219;44.500;11.188;2023-02-28T04:05:31;20.30;;;10.35;;
32864;SDS011;19219;44.500;11.188;2023-02-28T04:08:04;17.92;;;10.13;;
32864;SDS011;19219;44.500;11.188;2023-02-28T04:10:31;17.05;;;11.13;;
32864;SDS011;19219;44.500;11.188;2023-02-28T04:12:57;20.75;;;11.35;;
32864;SDS011;19219;44.500;11.188;2023-02-28T04:15:23;15.43;;;10.43;;
32864;SDS011;19219;44.500;11.188;2023-02-28T04:17:50;18.83;;;10.85;;
32864;SDS011;19219;44.500;11.188;2023-02-28T04:20:16;19.50;;;10.38;;
32864;SDS011;19219;44.500;11.188;2023-02-28T04:22:42;19.15;;;11.13;;
32864;SDS011;19219;44.500;11.188;2023-02-28T04:25:07;16.92;;;10.93;;
32864;SDS011;19219;44.500;11.188;2023-02-28T04:27:33;21.13;;;11.63;;
32864;SDS011;19219;44.500;11.188;2023-02-28T04:30:00;20.45;;;11.18;;
32864;SDS011;19219;44.500;11.188;2023-02-28T04:32:25;16.42;;;9.88;;
32864;SDS011;19219;44.500;11.188;2023-02-28T04:34:51;16.27;;;10.32;;
32864;SDS011;19219;44.500;11.188;2023-02-28T04:37:17;18.65;;;11.00;;
32864;SDS011;19219;44.500;11.188;2023-02-28T04:39:42;19.80;;;10.88;;
32864;SDS011;19219;44.500;11.188;2023-02-28T04:42:09;24.85;;;9.68;;
32864;SDS011;19219;44.500;11.188;2023-02-28T04:44:35;16.42;;;9.55;;
32864;SDS011;19219;44.500;11.188;2023-02-28T04:47:01;16.63;;;9.82;;
32864;SDS011;19219;44.500;11.188;2023-02-28T04:49:26;20.48;;;11.63;;
32864;SDS011;19219;44.500;11.188;2023-02-28T04:51:53;17.08;;;10.60;;
32864;SDS011;19219;44.500;11.188;2023-02-28T04:54:18;19.90;;;11.45;;
32864;SDS011;19219;44.500;11.188;2023-02-28T04:56:44;17.98;;;10.07;;
32864;SDS011;19219;44.500;11.188;2023-02-28T04:59:10;19.83;;;10.90;;
32864;SDS011;19219;44.500;11.188;2023-02-28T05:01:35;22.90;;;12.45;;
32864;SDS011;19219;44.500;11.188;2023-02-28T05:04:02;22.77;;;11.20;;
32864;SDS011;19219;44.500;11.188;2023-02-28T05:06:29;21.17;;;11.20;;
32864;SDS011;19219;44.500;11.188;2023-02-28T05:08:56;15.80;;;11.05;;
32864;SDS011;19219;44.500;11.188;2023-02-28T05:11:26;17.75;;;11.07;;
32864;SDS011;19219;44.500;11.188;2023-02-28T05:13:59;17.98;;;10.60;;
32864;SDS011;19219;44.500;11.188;2023-02-28T05:16:26;17.00;;;11.02;;
32864;SDS011;19219;44.500;11.188;2023-02-28T05:18:51;18.02;;;11.18;;
32864;SDS011;19219;44.500;11.188;2023-02-28T05:23:56;24.73;;;14.73;;
32864;SDS011;19219;44.500;11.188;2023-02-28T05:26:23;18.90;;;12.48;;
32864;SDS011;19219;44.500;11.188;2023-02-28T05:28:50;18.65;;;11.48;;
32864;SDS011;19219;44.500;11.188;2023-02-28T05:31:15;21.92;;;12.68;;
32864;SDS011;19219;44.500;11.188;2023-02-28T05:33:41;19.50;;;11.68;;
32864;SDS011;19219;44.500;11.188;2023-02-28T05:36:07;19.95;;;11.23;;
32864;SDS011;19219;44.500;11.188;2023-02-28T05:38:35;19.65;;;10.82;;
32864;SDS011;19219;44.500;11.188;2023-02-28T05:41:04;19.13;;;11.27;;
32864;SDS011;19219;44.500;11.188;2023-02-28T05:43:35;23.75;;;12.57;;
32864;SDS011;19219;44.500;11.188;2023-02-28T05:46:02;19.08;;;12.63;;
32864;SDS011;19219;44.500;11.188;2023-02-28T05:48:30;20.90;;;13.20;;
32864;SDS011;19219;44.500;11.188;2023-02-28T05:50:57;24.90;;;12.38;;
32864;SDS011;19219;44.500;11.188;2023-02-28T05:53:22;27.00;;;13.80;;
32864;SDS011;19219;44.500;11.188;2023-02-28T05:55:48;33.35;;;17.30;;
32864;SDS011;19219;44.500;11.188;2023-02-28T05:58:14;40.10;;;19.45;;
32864;SDS011;19219;44.500;11.188;2023-02-28T06:00:39;30.70;;;15.80;;
32864;SDS011;19219;44.500;11.188;2023-02-28T06:03:05;32.50;;;15.70;;
32864;SDS011;19219;44.500;11.188;2023-02-28T06:05:31;26.38;;;15.35;;
32864;SDS011;19219;44.500;11.188;2023-02-28T06:07:57;22.67;;;14.15;;
32864;SDS011;19219;44.500;11.188;2023-02-28T06:10:22;23.15;;;14.57;;
32864;SDS011;19219;44.500;11.188;2023-02-28T06:12:48;26.42;;;14.13;;
32864;SDS011;19219;44.500;11.188;2023-02-28T06:15:14;23.08;;;14.93;;
32864;SDS011;19219;44.500;11.188;2023-02-28T06:17:41;21.30;;;13.27;;
32864;SDS011;19219;44.500;11.188;2023-02-28T06:20:08;23.45;;;13.75;;
32864;SDS011;19219;44.500;11.188;2023-02-28T06:22:37;18.77;;;12.35;;
32864;SDS011;19219;44.500;11.188;2023-02-28T06:25:05;20.98;;;12.80;;
32864;SDS011;19219;44.500;11.188;2023-02-28T06:27:32;22.58;;;12.70;;
32864;SDS011;19219;44.500;11.188;2023-02-28T06:29:58;19.55;;;12.13;;
32864;SDS011;19219;44.500;11.188;2023-02-28T06:32:24;24.75;;;14.38;;
32864;SDS011;19219;44.500;11.188;2023-02-28T06:34:50;26.08;;;13.32;;
32864;SDS011;19219;44.500;11.188;2023-02-28T06:37:16;22.52;;;13.35;;
32864;SDS011;19219;44.500;11.188;2023-02-28T06:39:42;18.77;;;13.02;;
32864;SDS011;19219;44.500;11.188;2023-02-28T06:42:08;24.67;;;14.23;;
32864;SDS011;19219;44.500;11.188;2023-02-28T06:44:34;29.98;;;15.25;;
32864;SDS011;19219;44.500;11.188;2023-02-28T06:47:01;23.70;;;13.15;;
32864;SDS011;19219;44.500;11.188;2023-02-28T06:49:31;27.20;;;14.25;;
32864;SDS011;19219;44.500;11.188;2023-02-28T06:51:58;23.65;;;13.02;;
32864;SDS011;19219;44.500;11.188;2023-02-28T06:54:24;24.00;;;15.05;;
32864;SDS011;19219;44.500;11.188;2023-02-28T06:56:49;21.40;;;13.95;;
32864;SDS011;19219;44.500;11.188;2023-02-28T06:59:16;26.65;;;15.15;;
32864;SDS011;19219;44.500;11.188;2023-02-28T07:01:42;25.50;;;14.25;;
32864;SDS011;19219;44.500;11.188;2023-02-28T07:04:07;30.38;;;14.40;;
32864;SDS011;19219;44.500;11.188;2023-02-28T07:06:33;22.02;;;14.10;;
32864;SDS011;19219;44.500;11.188;2023-02-28T07:08:59;24.02;;;14.23;;
32864;SDS011;19219;44.500;11.188;2023-02-28T07:11:26;26.88;;;15.15;;
32864;SDS011;19219;44.500;11.188;2023-02-28T07:13:53;21.65;;;14.02;;
32864;SDS011;19219;44.500;11.188;2023-02-28T07:16:19;25.17;;;15.82;;
32864;SDS011;19219;44.500;11.188;2023-02-28T07:18:45;23.00;;;14.15;;
32864;SDS011;19219;44.500;11.188;2023-02-28T07:21:11;24.23;;;14.50;;
32864;SDS011;19219;44.500;11.188;2023-02-28T07:23:37;29.02;;;15.05;;
32864;SDS011;19219;44.500;11.188;2023-02-28T07:26:04;25.35;;;14.88;;
32864;SDS011;19219;44.500;11.188;2023-02-28T07:28:31;20.75;;;13.90;;
32864;SDS011;19219;44.500;11.188;2023-02-28T07:31:02;25.23;;;15.30;;
32864;SDS011;19219;44.500;11.188;2023-02-28T07:33:31;24.70;;;14.60;;
32864;SDS011;19219;44.500;11.188;2023-02-28T07:36:00;26.92;;;15.70;;
32864;SDS011;19219;44.500;11.188;2023-02-28T07:38:31;27.60;;;15.90;;
32864;SDS011;19219;44.500;11.188;2023-02-28T07:41:00;27.03;;;15.43;;
32864;SDS011;19219;44.500;11.188;2023-02-28T07:43:29;31.70;;;14.98;;
32864;SDS011;19219;44.500;11.188;2023-02-28T07:45:55;24.98;;;15.63;;
32864;SDS011;19219;44.500;11.188;2023-02-28T07:48:25;32.33;;;15.00;;
32864;SDS011;19219;44.500;11.188;2023-02-28T07:50:55;32.65;;;16.77;;
32864;SDS011;19219;44.500;11.188;2023-02-28T07:53:21;28.85;;;15.98;;
32864;SDS011;19219;44.500;11.188;2023-02-28T07:55:47;23.90;;;14.63;;
32864;SDS011;19219;44.500;11.188;2023-02-28T07:58:13;27.55;;;16.38;;
32864;SDS011;19219;44.500;11.188;2023-02-28T08:00:38;24.75;;;14.65;;
32864;SDS011;19219;44.500;11.188;2023-02-28T08:03:04;27.50;;;17.40;;
32864;SDS011;19219;44.500;11.188;2023-02-28T08:05:30;29.70;;;18.08;;
32864;SDS011;19219;44.500;11.188;2023-02-28T08:07:55;30.40;;;16.65;;
32864;SDS011;19219;44.500;11.188;2023-02-28T08:10:21;32.97;;;17.52;;
32864;SDS011;19219;44.500;11.188;2023-02-28T08:12:47;38.33;;;19.23;;
32864;SDS011;19219;44.500;11.188;2023-02-28T08:15:13;34.15;;;19.45;;
32864;SDS011;19219;44.500;11.188;2023-02-28T08:17:39;31.50;;;18.50;;
32864;SDS011;19219;44.500;11.188;2023-02-28T08:20:04;29.30;;;18.42;;
32864;SDS011;19219;44.500;11.188;2023-02-28T08:22:31;30.10;;;19.50;;
32864;SDS011;19219;44.500;11.188;2023-02-28T08:24:57;33.88;;;19.33;;
32864;SDS011;19219;44.500;11.188;2023-02-28T08:27:22;38.30;;;20.73;;
32864;SDS011;19219;44.500;11.188;2023-02-28T08:29:48;35.78;;;22.08;;
32864;SDS011;19219;44.500;11.188;2023-02-28T08:32:13;37.72;;;19.55;;
32864;SDS011;19219;44.500;11.188;2023-02-28T08:34:39;34.42;;;19.77;;
32864;SDS011;19219;44.500;11.188;2023-02-28T08:37:05;37.05;;;21.50;;
32864;SDS011;19219;44.500;11.188;2023-02-28T08:39:33;39.40;;;21.67;;
32864;SDS011;19219;44.500;11.188;2023-02-28T08:42:00;37.10;;;19.52;;
32864;SDS011;19219;44.500;11.188;2023-02-28T08:44:27;35.03;;;19.77;;
32864;SDS011;19219;44.500;11.188;2023-02-28T08:46:53;32.72;;;20.15;;
32864;SDS011;19219;44.500;11.188;2023-02-28T08:49:19;40.60;;;21.00;;
32864;SDS011;19219;44.500;11.188;2023-02-28T08:51:44;32.35;;;18.25;;
32864;SDS011;19219;44.500;11.188;2023-02-28T08:54:10;36.80;;;20.08;;
32864;SDS011;19219;44.500;11.188;2023-02-28T08:56:37;38.90;;;22.30;;
32864;SDS011;19219;44.500;11.188;2023-02-28T08:59:03;40.97;;;20.20;;
32864;SDS011;19219;44.500;11.188;2023-02-28T09:01:29;36.85;;;19.30;;
32864;SDS011;19219;44.500;11.188;2023-02-28T09:03:56;32.63;;;18.70;;
32864;SDS011;19219;44.500;11.188;2023-02-28T09:06:24;35.75;;;19.08;;
32864;SDS011;19219;44.500;11.188;2023-02-28T09:08:51;32.60;;;18.58;;
32864;SDS011;19219;44.500;11.188;2023-02-28T09:11:17;32.03;;;17.48;;
32864;SDS011;19219;44.500;11.188;2023-02-28T09:13:44;31.70;;;19.42;;
32864;SDS011;19219;44.500;11.188;2023-02-28T09:16:10;39.35;;;20.90;;
32864;SDS011;19219;44.500;11.188;2023-02-28T09:18:37;32.15;;;18.58;;
32864;SDS011;19219;44.500;11.188;2023-02-28T09:21:05;30.90;;;20.10;;
32864;SDS011;19219;44.500;11.188;2023-02-28T09:23:35;36.47;;;20.23;;
32864;SDS011;19219;44.500;11.188;2023-02-28T09:26:03;36.17;;;20.75;;
32864;SDS011;19219;44.500;11.188;2023-02-28T09:28:29;32.80;;;18.75;;
32864;SDS011;19219;44.500;11.188;2023-02-28T09:30:55;29.95;;;18.23;;
32864;SDS011;19219;44.500;11.188;2023-02-28T09:33:22;36.22;;;19.58;;
32864;SDS011;19219;44.500;11.188;2023-02-28T09:35:48;29.50;;;17.73;;
32864;SDS011;19219;44.500;11.188;2023-02-28T09:38:15;31.70;;;18.75;;
32864;SDS011;19219;44.500;11.188;2023-02-28T09:40:50;30.60;;;19.27;;
32864;SDS011;19219;44.500;11.188;2023-02-28T09:43:20;33.40;;;18.77;;
32864;SDS011;19219;44.500;11.188;2023-02-28T09:46:00;31.70;;;17.50;;
32864;SDS011;19219;44.500;11.188;2023-02-28T09:48:39;30.58;;;18.05;;
32864;SDS011;19219;44.500;11.188;2023-02-28T09:51:12;28.30;;;19.30;;
32864;SDS011;19219;44.500;11.188;2023-02-28T09:53:52;34.10;;;18.85;;
32864;SDS011;19219;44.500;11.188;2023-02-28T09:56:20;30.27;;;18.35;;
32864;SDS011;19219;44.500;11.188;2023-02-28T10:04:58;28.35;;;18.63;;
32864;SDS011;19219;44.500;11.188;2023-02-28T10:10:02;26.60;;;16.85;;
32864;SDS011;19219;44.500;11.188;2023-02-28T10:12:39;34.13;;;18.95;;
32864;SDS011;19219;44.500;11.188;2023-02-28T10:15:13;34.60;;;19.75;;
32864;SDS011;19219;44.500;11.188;2023-02-28T10:17:41;30.60;;;18.05;;
32864;SDS011;19219;44.500;11.188;2023-02-28T10:20:12;28.63;;;18.25;;
32864;SDS011;19219;44.500;11.188;2023-02-28T10:25:28;33.38;;;18.13;;
32864;SDS011;19219;44.500;11.188;2023-02-28T10:28:01;36.90;;;20.90;;
32864;SDS011;19219;44.500;11.188;2023-02-28T10:30:36;29.48;;;18.92;;
32864;SDS011;19219;44.500;11.188;2023-02-28T10:33:19;32.13;;;18.85;;
32864;SDS011;19219;44.500;11.188;2023-02-28T10:35:45;36.55;;;20.15;;
32864;SDS011;19219;44.500;11.188;2023-02-28T10:38:18;28.17;;;18.67;;
32864;SDS011;19219;44.500;11.188;2023-02-28T10:40:46;34.47;;;18.48;;
32864;SDS011;19219;44.500;11.188;2023-02-28T10:45:38;28.95;;;19.83;;
32864;SDS011;19219;44.500;11.188;2023-02-28T10:48:05;33.65;;;19.02;;
32864;SDS011;19219;44.500;11.188;2023-02-28T10:50:52;45.90;;;24.77;;
32864;SDS011;19219;44.500;11.188;2023-02-28T10:58:23;34.17;;;17.98;;
32864;SDS011;19219;44.500;11.188;2023-02-28T11:00:50;33.92;;;20.52;;
32864;SDS011;19219;44.500;11.188;2023-02-28T11:03:33;37.33;;;21.85;;
32864;SDS011;19219;44.500;11.188;2023-02-28T11:06:07;34.65;;;21.23;;
32864;SDS011;19219;44.500;11.188;2023-02-28T11:08:46;36.13;;;21.17;;
32864;SDS011;19219;44.500;11.188;2023-02-28T11:11:14;29.40;;;19.88;;
32864;SDS011;19219;44.500;11.188;2023-02-28T11:13:42;33.08;;;20.23;;
32864;SDS011;19219;44.500;11.188;2023-02-28T11:16:10;28.00;;;18.90;;
32864;SDS011;19219;44.500;11.188;2023-02-28T11:18:42;38.05;;;19.30;;
32864;SDS011;19219;44.500;11.188;2023-02-28T11:21:15;28.35;;;18.80;;
32864;SDS011;19219;44.500;11.188;2023-02-28T11:26:52;26.75;;;16.63;;
32864;SDS011;19219;44.500;11.188;2023-02-28T11:29:22;25.80;;;17.50;;
32864;SDS011;19219;44.500;11.188;2023-02-28T11:34:34;27.50;;;17.45;;
32864;SDS011;19219;44.500;11.188;2023-02-28T11:37:01;27.05;;;18.00;;
32864;SDS011;19219;44.500;11.188;2023-02-28T11:39:30;30.15;;;16.90;;
32864;SDS011;19219;44.500;11.188;2023-02-28T11:50:22;23.67;;;15.65;;
32864;SDS011;19219;44.500;11.188;2023-02-28T11:53:14;28.15;;;16.40;;
32864;SDS011;19219;44.500;11.188;2023-02-28T11:56:01;28.15;;;15.77;;
32864;SDS011;19219;44.500;11.188;2023-02-28T12:01:38;32.15;;;17.98;;
32864;SDS011;19219;44.500;11.188;2023-02-28T12:20:17;45.28;;;24.17;;
32864;SDS011;19219;44.500;11.188;2023-02-28T12:28:16;30.42;;;17.35;;
32864;SDS011;19219;44.500;11.188;2023-02-28T12:31:06;27.85;;;16.90;;
32864;SDS011;19219;44.500;11.188;2023-02-28T12:33:53;27.90;;;16.10;;
32864;SDS011;19219;44.500;11.188;2023-02-28T12:36:34;22.30;;;15.23;;
32864;SDS011;19219;44.500;11.188;2023-02-28T12:39:18;23.88;;;14.02;;
32864;SDS011;19219;44.500;11.188;2023-02-28T12:41:54;24.35;;;15.10;;
32864;SDS011;19219;44.500;11.188;2023-02-28T12:44:32;21.33;;;14.15;;
32864;SDS011;19219;44.500;11.188;2023-02-28T12:47:09;28.40;;;15.18;;
32864;SDS011;19219;44.500;11.188;2023-02-28T12:50:03;29.55;;;15.65;;
32864;SDS011;19219;44.500;11.188;2023-02-28T12:53:15;28.85;;;15.15;;
32864;SDS011;19219;44.500;11.188;2023-02-28T12:55:35;27.08;;;17.05;;
32864;SDS011;19219;44.500;11.188;2023-02-28T12:58:54;26.73;;;17.35;;
32864;SDS011;19219;44.500;11.188;2023-02-28T13:09:29;28.00;;;16.88;;
32864;SDS011;19219;44.500;11.188;2023-02-28T13:11:55;37.80;;;18.90;;
32864;SDS011;19219;44.500;11.188;2023-02-28T13:14:29;29.70;;;17.00;;
32864;SDS011;19219;44.500;11.188;2023-02-28T13:19:32;31.80;;;19.17;;
32864;SDS011;19219;44.500;11.188;2023-02-28T13:22:00;41.58;;;26.17;;
32864;SDS011;19219;44.500;11.188;2023-02-28T13:29:50;33.90;;;18.80;;
32864;SDS011;19219;44.500;11.188;2023-02-28T13:32:20;29.07;;;19.43;;
32864;SDS011;19219;44.500;11.188;2023-02-28T13:48:14;30.35;;;19.50;;
32864;SDS011;19219;44.500;11.188;2023-02-28T13:55:49;34.22;;;20.30;;
32864;SDS011;19219;44.500;11.188;2023-02-28T14:01:03;33.03;;;19.63;;
32864;SDS011;19219;44.500;11.188;2023-02-28T14:06:47;33.35;;;20.35;;
32864;SDS011;19219;44.500;11.188;2023-02-28T14:09:17;32.60;;;20.63;;
32864;SDS011;19219;44.500;11.188;2023-02-28T14:11:53;40.40;;;22.00;;
32864;SDS011;19219;44.500;11.188;2023-02-28T14:17:01;42.38;;;22.80;;
32864;SDS011;19219;44.500;11.188;2023-02-28T14:19:30;42.83;;;22.85;;
32864;SDS011;19219;44.500;11.188;2023-02-28T14:35:39;38.90;;;22.80;;
32864;SDS011;19219;44.500;11.188;2023-02-28T14:38:13;36.60;;;21.65;;
32864;SDS011;19219;44.500;11.188;2023-02-28T14:40:56;40.08;;;24.02;;
32864;SDS011;19219;44.500;11.188;2023-02-28T14:43:26;35.92;;;21.90;;
32864;SDS011;19219;44.500;11.188;2023-02-28T14:45:54;42.05;;;23.77;;
32864;SDS011;19219;44.500;11.188;2023-02-28T14:48:22;37.15;;;23.05;;
32864;SDS011;19219;44.500;11.188;2023-02-28T14:50:51;34.75;;;23.38;;
32864;SDS011;19219;44.500;11.188;2023-02-28T14:53:22;40.35;;;24.80;;
32864;SDS011;19219;44.500;11.188;2023-02-28T14:55:50;41.28;;;24.60;;
32864;SDS011;19219;44.500;11.188;2023-02-28T14:58:25;39.67;;;23.92;;
32864;SDS011;19219;44.500;11.188;2023-02-28T15:00:52;37.45;;;22.75;;
32864;SDS011;19219;44.500;11.188;2023-02-28T15:03:20;39.15;;;22.08;;
32864;SDS011;19219;44.500;11.188;2023-02-28T15:08:33;68.00;;;37.50;;
32864;SDS011;19219;44.500;11.188;2023-02-28T15:11:03;41.15;;;23.63;;
32864;SDS011;19219;44.500;11.188;2023-02-28T15:13:39;39.55;;;23.70;;
32864;SDS011;19219;44.500;11.188;2023-02-28T15:16:12;38.35;;;24.77;;
32864;SDS011;19219;44.500;11.188;2023-02-28T15:21:49;40.75;;;25.00;;
32864;SDS011;19219;44.500;11.188;2023-02-28T15:24:24;47.85;;;26.45;;
32864;SDS011;19219;44.500;11.188;2023-02-28T15:26:57;47.28;;;25.70;;
32864;SDS011;19219;44.500;11.188;2023-02-28T15:29:28;39.00;;;23.25;;
32864;SDS011;19219;44.500;11.188;2023-02-28T15:32:15;36.38;;;24.02;;
32864;SDS011;19219;44.500;11.188;2023-02-28T15:34:59;41.25;;;25.40;;
32864;SDS011;19219;44.500;11.188;2023-02-28T15:40:23;43.17;;;24.77;;
32864;SDS011;19219;44.500;11.188;2023-02-28T15:50:51;49.08;;;26.95;;
32864;SDS011;19219;44.500;11.188;2023-02-28T15:53:20;44.22;;;27.17;;
32864;SDS011;19219;44.500;11.188;2023-02-28T15:55:56;36.92;;;25.40;;
32864;SDS011;19219;44.500;11.188;2023-02-28T15:58:26;44.85;;;25.05;;
32864;SDS011;19219;44.500;11.188;2023-02-28T16:01:16;45.45;;;25.35;;
32864;SDS011;19219;44.500;11.188;2023-02-28T16:03:50;48.88;;;26.48;;
32864;SDS011;19219;44.500;11.188;2023-02-28T16:08:47;51.35;;;27.88;;
32864;SDS011;19219;44.500;11.188;2023-02-28T16:11:13;38.72;;;24.10;;
32864;SDS011;19219;44.500;11.188;2023-02-28T16:13:40;98.03;;;59.35;;
32864;SDS011;19219;44.500;11.188;2023-02-28T16:16:05;70.18;;;41.03;;
32864;SDS011;19219;44.500;11.188;2023-02-28T16:18:31;48.55;;;31.02;;
32864;SDS011;19219;44.500;11.188;2023-02-28T16:20:57;52.72;;;32.25;;
32864;SDS011;19219;44.500;11.188;2023-02-28T16:23:23;48.55;;;28.92;;
32864;SDS011;19219;44.500;11.188;2023-02-28T16:25:48;52.13;;;31.60;;
32864;SDS011;19219;44.500;11.188;2023-02-28T16:28:47;49.30;;;30.63;;
32864;SDS011;19219;44.500;11.188;2023-02-28T16:31:06;53.15;;;26.90;;
32864;SDS011;19219;44.500;11.188;2023-02-28T16:33:32;41.40;;;25.80;;
32864;SDS011;19219;44.500;11.188;2023-02-28T16:35:59;47.05;;;28.52;;
32864;SDS011;19219;44.500;11.188;2023-02-28T16:38:25;48.95;;;30.30;;
32864;SDS011;19219;44.500;11.188;2023-02-28T16:40:51;50.95;;;27.98;;
32864;SDS011;19219;44.500;11.188;2023-02-28T16:43:22;56.10;;;32.00;;
32864;SDS011;19219;44.500;11.188;2023-02-28T16:45:54;59.53;;;35.47;;
32864;SDS011;19219;44.500;11.188;2023-02-28T16:48:24;45.00;;;27.02;;
32864;SDS011;19219;44.500;11.188;2023-02-28T16:50:50;42.17;;;26.63;;
32864;SDS011;19219;44.500;11.188;2023-02-28T16:53:16;47.20;;;26.27;;
32864;SDS011;19219;44.500;11.188;2023-02-28T16:55:42;45.65;;;26.27;;
32864;SDS011;19219;44.500;11.188;2023-02-28T16:58:10;58.03;;;27.13;;
32864;SDS011;19219;44.500;11.188;2023-02-28T17:00:42;46.67;;;25.35;;
32864;SDS011;19219;44.500;11.188;2023-02-28T17:03:19;58.45;;;29.58;;
32864;SDS011;19219;44.500;11.188;2023-02-28T17:05:50;59.85;;;36.08;;
32864;SDS011;19219;44.500;11.188;2023-02-28T17:08:16;78.07;;;47.65;;
32864;SDS011;19219;44.500;11.188;2023-02-28T17:10:42;55.78;;;32.67;;
32864;SDS011;19219;44.500;11.188;2023-02-28T17:13:08;49.63;;;27.73;;